Aviation Digital Data Service (ADDS)

Output produced by TAFs form (1202 UTC 29 July 2016)
found at http://www.aviationweather.gov/adds/tafs/
 
KMRB 291120Z 2912/3012 32005KT P6SM OVC025 
     FM291300 33006KT P6SM BKN035 
     FM300100 00000KT P6SM BKN150